createdAt,value
2022-10-31T03:56:28.977Z,69.62
2022-10-31T03:59:23.336Z,70.07
2022-10-31T04:02:17.263Z,69.95
2022-10-31T04:05:07.082Z,70.00
2022-10-31T04:07:59.839Z,70.06
2022-10-31T04:10:49.294Z,69.85
2022-10-31T04:13:42.149Z,70.00
2022-10-31T04:16:35.734Z,70.12
2022-10-31T04:19:22.514Z,70.32
2022-10-31T04:22:10.306Z,70.06
2022-10-31T04:25:00.957Z,69.75
2022-10-31T04:27:47.691Z,70.25
2022-10-31T04:30:35.006Z,70.23
2022-10-31T04:33:21.786Z,70.22
2022-10-31T04:36:08.564Z,70.22
2022-10-31T04:38:56.233Z,70.25
2022-10-31T04:41:55.942Z,70.35
2022-10-31T04:44:44.172Z,70.49
2022-10-31T04:47:30.983Z,70.32
2022-10-31T04:50:17.988Z,70.50
2022-10-31T04:53:06.987Z,70.92
2022-10-31T04:56:00.919Z,70.44
2022-10-31T04:58:55.835Z,70.64
2022-10-31T05:01:44.308Z,70.66
2022-10-31T05:04:31.894Z,70.42
2022-10-31T05:07:18.725Z,70.53
2022-10-31T05:10:05.498Z,70.43
2022-10-31T05:12:53.832Z,70.55
2022-10-31T05:16:00.855Z,70.19
2022-10-31T05:18:50.135Z,70.52
2022-10-31T05:21:48.907Z,70.60
2022-10-31T05:24:35.724Z,70.38
2022-10-31T05:27:22.476Z,70.48
2022-10-31T05:29:49.844Z,70.48
2022-10-31T05:32:36.660Z,70.29
2022-10-31T05:35:44.827Z,70.68
2022-10-31T05:38:49.955Z,70.38
2022-10-31T05:41:44.098Z,70.46
2022-10-31T05:44:39.178Z,70.20
2022-10-31T05:47:42.642Z,70.67
2022-10-31T05:50:49.772Z,70.56
2022-10-31T05:53:37.014Z,70.76
2022-10-31T05:56:23.954Z,70.51
2022-10-31T05:59:10.722Z,70.45
2022-10-31T06:01:58.987Z,70.69
2022-10-31T06:05:04.681Z,70.68
2022-10-31T06:07:55.441Z,70.79
2022-10-31T06:10:43.891Z,71.16
2022-10-31T06:13:32.214Z,70.84
2022-10-31T06:16:24.703Z,70.95
2022-10-31T06:19:12.576Z,70.86
2022-10-31T06:21:59.278Z,70.84
2022-10-31T06:24:45.992Z,70.75
2022-10-31T06:27:50.490Z,70.85
2022-10-31T06:30:40.426Z,71.03
2022-10-31T06:33:27.211Z,70.69
2022-10-31T06:36:16.908Z,70.97
2022-10-31T06:39:03.756Z,70.81
2022-10-31T06:41:50.914Z,71.04
2022-10-31T06:44:40.494Z,70.67
2022-10-31T06:48:10.958Z,70.88
2022-10-31T06:50:59.620Z,70.83
2022-10-31T06:53:47.798Z,70.92
2022-10-31T06:56:36.782Z,71.13
2022-10-31T06:59:24.580Z,71.00
2022-10-31T07:02:31.415Z,70.88
2022-10-31T07:05:18.266Z,70.78
2022-10-31T07:08:05.054Z,70.82
2022-10-31T07:10:53.969Z,71.09
2022-10-31T07:13:42.254Z,70.77
2022-10-31T07:16:29.577Z,71.11
2022-10-31T07:18:56.387Z,71.15
2022-10-31T07:21:43.096Z,70.65
2022-10-31T07:24:31.420Z,71.29
2022-10-31T07:27:38.795Z,70.52
2022-10-31T07:30:31.746Z,71.16
2022-10-31T07:33:18.703Z,70.99
2022-10-31T07:36:24.303Z,71.14
2022-10-31T07:39:13.018Z,71.21
2022-10-31T07:41:59.855Z,70.99
2022-10-31T07:44:46.777Z,71.28
2022-10-31T07:48:13.383Z,71.12
2022-10-31T07:51:18.729Z,70.95
2022-10-31T07:54:24.081Z,71.61
2022-10-31T07:57:10.775Z,71.15
2022-10-31T07:59:58.731Z,71.28
2022-10-31T08:02:46.298Z,71.13
2022-10-31T08:05:54.755Z,71.02
2022-10-31T08:08:59.927Z,71.24
2022-10-31T08:11:47.499Z,71.53
2022-10-31T08:14:34.210Z,71.35
2022-10-31T08:17:21.654Z,71.08
2022-10-31T08:20:15.142Z,71.20
2022-10-31T08:23:17.036Z,71.27
2022-10-31T08:26:04.792Z,71.40
2022-10-31T08:28:51.513Z,71.48
2022-10-31T08:31:42.987Z,71.23
2022-10-31T08:34:48.434Z,71.29
2022-10-31T08:37:33.899Z,71.46
2022-10-31T08:40:00.715Z,71.32
2022-10-31T08:42:27.469Z,71.47
2022-10-31T08:44:54.238Z,71.42
2022-10-31T08:47:22.536Z,71.16
2022-10-31T08:49:49.283Z,71.31
2022-10-31T08:53:03.009Z,71.23
2022-10-31T08:55:42.991Z,71.33
2022-10-31T08:58:44.750Z,71.70
2022-10-31T09:01:31.934Z,71.36
2022-10-31T09:04:18.845Z,71.41
2022-10-31T09:07:21.666Z,71.21
2022-10-31T09:10:08.829Z,71.54
2022-10-31T09:12:57.623Z,71.36
2022-10-31T09:15:50.939Z,71.47
2022-10-31T09:18:44.579Z,71.84
2022-10-31T09:21:31.310Z,71.50
2022-10-31T09:24:19.162Z,71.38
2022-10-31T09:27:05.935Z,71.73
2022-10-31T09:29:56.079Z,72.02
2022-10-31T09:32:42.866Z,71.92
2022-10-31T09:35:30.627Z,71.68
2022-10-31T09:38:19.858Z,71.85
2022-10-31T09:41:27.286Z,72.27
2022-10-31T09:44:43.183Z,72.09
2022-10-31T09:48:05.915Z,71.92
2022-10-31T09:50:41.418Z,71.65
2022-10-31T09:54:12.027Z,72.34
2022-10-31T09:56:59.639Z,71.81
2022-10-31T09:59:36.310Z,71.87
2022-10-31T10:02:21.578Z,72.49
2022-10-31T10:05:06.104Z,72.78
2022-10-31T10:07:51.002Z,71.85
2022-10-31T10:10:51.254Z,72.00
2022-10-31T10:14:20.599Z,72.62
2022-10-31T10:17:26.085Z,72.42
2022-10-31T10:21:06.469Z,72.89
2022-10-31T10:24:43.551Z,73.19
2022-10-31T10:28:08.975Z,73.10
2022-10-31T10:31:18.181Z,72.98
2022-10-31T10:34:16.810Z,72.96
2022-10-31T10:37:15.787Z,73.23
2022-10-31T10:40:08.531Z,72.66
2022-10-31T10:42:54.957Z,73.21
2022-10-31T10:45:40.282Z,72.22
2022-10-31T10:48:44.542Z,72.40
2022-10-31T10:52:34.964Z,72.33
2022-10-31T10:55:42.840Z,72.89
2022-10-31T10:58:31.423Z,73.75
2022-10-31T11:01:18.240Z,73.41
2022-10-31T11:04:05.020Z,72.64
2022-10-31T11:06:51.727Z,72.93
2022-10-31T11:09:38.530Z,72.84
2022-10-31T11:12:51.809Z,73.38
2022-10-31T11:15:45.199Z,73.14
2022-10-31T11:18:42.522Z,73.02
2022-10-31T11:21:41.934Z,73.69
2022-10-31T11:24:31.456Z,73.96
2022-10-31T11:27:37.222Z,73.00
2022-10-31T11:30:27.716Z,73.49
2022-10-31T11:33:14.739Z,73.50
2022-10-31T11:36:01.538Z,73.36
2022-10-31T11:39:00.782Z,74.59
2022-10-31T11:42:04.891Z,74.23
2022-10-31T11:44:54.950Z,74.65
2022-10-31T11:47:55.249Z,74.60
2022-10-31T11:50:53.954Z,73.37
2022-10-31T11:53:59.851Z,74.54
2022-10-31T11:57:00.262Z,74.94
2022-10-31T11:59:49.993Z,75.17
2022-10-31T12:02:40.955Z,74.02
2022-10-31T12:05:31.603Z,75.24
2022-10-31T12:08:18.370Z,75.28
2022-10-31T12:11:08.102Z,75.26
2022-10-31T12:14:03.989Z,74.83
2022-10-31T12:17:15.476Z,75.23
2022-10-31T12:20:23.926Z,75.46
2022-10-31T12:23:24.553Z,76.12
2022-10-31T12:26:19.972Z,75.64
2022-10-31T12:29:41.064Z,75.53
2022-10-31T12:32:58.964Z,75.85
2022-10-31T12:35:57.962Z,75.81
2022-10-31T12:38:56.576Z,76.14
2022-10-31T12:42:06.869Z,75.57
2022-10-31T12:44:53.551Z,76.11
2022-10-31T12:48:25.117Z,77.20
2022-10-31T12:51:23.974Z,77.12
2022-10-31T12:54:19.282Z,76.52
2022-10-31T12:57:11.914Z,76.99
2022-10-31T13:00:04.577Z,77.15
2022-10-31T13:03:16.513Z,78.16
2022-10-31T13:06:09.087Z,78.36
2022-10-31T13:09:06.802Z,77.61
2022-10-31T13:12:02.926Z,78.51
2022-10-31T13:15:07.725Z,77.99
2022-10-31T13:18:08.867Z,77.81
2022-10-31T13:21:08.725Z,78.64
2022-10-31T13:23:58.235Z,78.30
2022-10-31T13:26:58.231Z,79.10
2022-10-31T13:29:56.990Z,78.76
2022-10-31T13:32:44.052Z,78.78
2022-10-31T13:36:02.830Z,78.79
2022-10-31T13:39:11.427Z,79.91
2022-10-31T13:42:09.924Z,79.69
2022-10-31T13:45:00.706Z,79.62
2022-10-31T13:47:49.502Z,80.00
2022-10-31T13:50:38.950Z,80.26
2022-10-31T13:53:41.319Z,80.40
2022-10-31T13:56:42.196Z,80.20
2022-10-31T13:59:31.847Z,80.66
2022-10-31T14:02:21.544Z,80.82
2022-10-31T14:05:33.373Z,80.88
2022-10-31T14:08:23.575Z,80.62
2022-10-31T14:11:16.270Z,80.68
2022-10-31T14:14:06.151Z,81.02
2022-10-31T14:16:55.641Z,81.03
2022-10-31T14:19:43.678Z,81.05
2022-10-31T14:22:43.087Z,81.04
2022-10-31T14:25:56.638Z,80.77
2022-10-31T14:28:54.211Z,80.85
2022-10-31T14:31:54.523Z,80.67
2022-10-31T14:34:44.263Z,80.89
2022-10-31T14:37:58.501Z,81.04
2022-10-31T14:41:02.842Z,80.76
2022-10-31T14:44:01.351Z,82.24
2022-10-31T14:46:53.708Z,81.88
2022-10-31T14:50:11.603Z,81.94
2022-10-31T14:53:00.157Z,81.27
2022-10-31T14:55:47.469Z,81.84
2022-10-31T14:58:39.428Z,81.63
2022-10-31T15:01:27.706Z,81.91
2022-10-31T15:04:24.670Z,81.58
2022-10-31T15:07:39.729Z,81.89
2022-10-31T15:10:42.501Z,81.26
2022-10-31T15:13:31.314Z,81.30
2022-10-31T15:16:18.302Z,81.68
2022-10-31T15:19:12.714Z,81.76
2022-10-31T15:22:05.168Z,81.71
2022-10-31T15:24:56.192Z,81.31
2022-10-31T15:27:44.665Z,81.78
2022-10-31T15:30:57.908Z,81.89
2022-10-31T15:33:51.867Z,81.58
2022-10-31T15:36:44.741Z,81.50
2022-10-31T15:39:32.714Z,81.62
2022-10-31T15:42:20.461Z,81.85
2022-10-31T15:45:12.911Z,81.72
2022-10-31T15:48:06.065Z,81.87
2022-10-31T15:51:09.581Z,81.61
2022-10-31T15:53:58.314Z,82.05
2022-10-31T15:56:48.890Z,82.03
2022-10-31T15:59:44.606Z,82.20
2022-10-31T16:02:33.492Z,81.64
2022-10-31T16:05:22.258Z,81.69
2022-10-31T16:08:13.105Z,81.43
2022-10-31T16:10:59.879Z,81.97
2022-10-31T16:13:56.074Z,81.96
2022-10-31T16:16:43.627Z,81.74
2022-10-31T16:19:53.211Z,81.78
2022-10-31T16:22:44.263Z,81.90
2022-10-31T16:25:33.766Z,81.83
2022-10-31T16:28:48.770Z,81.53
2022-10-31T16:31:35.617Z,81.75
2022-10-31T16:34:43.474Z,81.85
2022-10-31T16:37:30.162Z,81.95
2022-10-31T16:40:16.865Z,82.13
2022-10-31T16:43:05.046Z,81.64
2022-10-31T16:45:53.846Z,81.89
2022-10-31T16:48:42.143Z,82.47
2022-10-31T16:51:29.095Z,81.79
2022-10-31T16:54:15.819Z,81.95
2022-10-31T16:56:45.792Z,81.92
2022-10-31T16:59:16.053Z,82.01
2022-10-31T17:01:46.353Z,81.90
2022-10-31T17:04:14.757Z,81.75
2022-10-31T17:06:42.465Z,81.70
2022-10-31T17:09:09.814Z,82.12
2022-10-31T17:11:37.477Z,81.42
2022-10-31T17:14:25.280Z,81.77
2022-10-31T17:16:52.120Z,81.67
2022-10-31T17:19:19.046Z,81.93
2022-10-31T17:22:05.849Z,81.27
2022-10-31T17:24:52.551Z,81.43
2022-10-31T17:27:41.241Z,81.43
2022-10-31T17:30:33.335Z,81.30
2022-10-31T17:33:20.394Z,81.24
2022-10-31T17:36:07.124Z,80.95
2022-10-31T17:38:53.906Z,81.21
2022-10-31T17:41:40.615Z,80.86
2022-10-31T17:44:30.746Z,80.83
2022-10-31T17:47:17.477Z,80.46
2022-10-31T17:50:04.185Z,80.45
2022-10-31T17:52:50.932Z,80.26
2022-10-31T17:55:37.920Z,80.36
2022-10-31T17:58:25.472Z,80.32
2022-10-31T18:01:12.300Z,80.00
2022-10-31T18:03:59.791Z,79.64
2022-10-31T18:06:46.658Z,79.76
2022-10-31T18:09:33.380Z,79.69
2022-10-31T18:12:20.242Z,79.94
2022-10-31T18:15:06.964Z,79.77
2022-10-31T18:17:53.709Z,79.75
2022-10-31T18:20:40.414Z,79.73
2022-10-31T18:23:27.346Z,79.29
2022-10-31T18:26:14.772Z,79.22
2022-10-31T18:29:01.515Z,79.73
2022-10-31T18:31:48.219Z,79.33
2022-10-31T18:34:35.608Z,79.20
2022-10-31T18:37:22.395Z,79.12
2022-10-31T18:40:09.116Z,79.11
2022-10-31T18:42:55.961Z,78.84
2022-10-31T18:45:47.933Z,78.90
2022-10-31T18:48:36.970Z,79.04
2022-10-31T18:51:25.367Z,78.91
2022-10-31T18:54:13.709Z,78.77
2022-10-31T18:57:00.434Z,78.64
2022-10-31T18:59:47.153Z,78.95
2022-10-31T19:02:36.969Z,78.55
2022-10-31T19:05:24.010Z,78.24
2022-10-31T19:08:10.738Z,78.10
2022-10-31T19:10:58.967Z,78.15
2022-10-31T19:13:45.691Z,79.03
2022-10-31T19:16:35.765Z,78.49
2022-10-31T19:19:22.542Z,78.17
2022-10-31T19:22:09.243Z,78.23
2022-10-31T19:24:56.031Z,77.85
2022-10-31T19:27:42.716Z,77.84
2022-10-31T19:30:30.547Z,77.74
2022-10-31T19:33:17.242Z,77.89
2022-10-31T19:36:03.991Z,78.16
2022-10-31T19:38:51.129Z,78.34
2022-10-31T19:41:40.407Z,77.98
2022-10-31T19:44:27.105Z,78.31
2022-10-31T19:47:13.812Z,78.11
2022-10-31T19:50:00.502Z,77.41
2022-10-31T19:52:47.224Z,77.49
2022-10-31T19:55:33.983Z,77.83
2022-10-31T19:58:20.680Z,77.13
2022-10-31T20:01:07.482Z,77.93
2022-10-31T20:03:54.292Z,77.14
2022-10-31T20:06:48.620Z,77.57
2022-10-31T20:09:35.429Z,77.19
2022-10-31T20:12:22.130Z,77.35
2022-10-31T20:15:09.561Z,76.91
2022-10-31T20:17:56.306Z,77.33
2022-10-31T20:20:43.231Z,77.84
2022-10-31T20:23:30.459Z,77.42
2022-10-31T20:26:17.260Z,77.07
2022-10-31T20:29:04.374Z,77.03
2022-10-31T20:31:53.806Z,76.93
2022-10-31T20:34:40.536Z,77.16
2022-10-31T20:37:27.332Z,76.98
2022-10-31T20:40:14.059Z,76.77
2022-10-31T20:43:00.842Z,76.81
2022-10-31T20:45:48.250Z,76.94
2022-10-31T20:48:34.942Z,77.58
2022-10-31T20:51:26.410Z,76.96
2022-10-31T20:54:14.642Z,76.66
2022-10-31T20:57:02.589Z,76.56
2022-10-31T20:59:49.362Z,76.54
2022-10-31T21:02:36.248Z,77.47
2022-10-31T21:05:23.023Z,77.77
2022-10-31T21:08:09.752Z,76.75
2022-10-31T21:10:59.166Z,77.38
2022-10-31T21:13:46.614Z,76.53
2022-10-31T21:16:39.686Z,77.32
2022-10-31T21:19:26.415Z,76.49
2022-10-31T21:22:13.126Z,77.23
2022-10-31T21:24:59.830Z,76.73
2022-10-31T21:27:46.556Z,76.65
2022-10-31T21:30:33.597Z,76.47
2022-10-31T21:33:20.358Z,76.33
2022-10-31T21:36:11.656Z,77.32
2022-10-31T21:38:59.147Z,77.07
2022-10-31T21:41:46.799Z,76.96
2022-10-31T21:44:33.580Z,76.47
2022-10-31T21:47:20.309Z,77.45
2022-10-31T21:50:07.008Z,77.23
2022-10-31T21:52:53.786Z,76.46
2022-10-31T21:55:40.478Z,77.43
2022-10-31T21:58:27.168Z,76.74
2022-10-31T22:01:13.926Z,76.94
2022-10-31T22:04:01.722Z,76.49
2022-10-31T22:06:52.017Z,76.68
2022-10-31T22:09:38.886Z,76.62
2022-10-31T22:12:25.774Z,77.47
2022-10-31T22:14:56.422Z,77.28
2022-10-31T22:17:43.211Z,76.63
2022-10-31T22:20:30.195Z,77.15
2022-10-31T22:23:16.963Z,76.76
2022-10-31T22:26:03.662Z,77.26
2022-10-31T22:28:52.417Z,77.48
2022-10-31T22:31:41.017Z,77.49
2022-10-31T22:34:28.458Z,77.43
2022-10-31T22:37:19.628Z,77.24
2022-10-31T22:40:06.619Z,77.52
2022-10-31T22:42:53.360Z,76.89
2022-10-31T22:45:40.037Z,76.86
2022-10-31T22:48:29.446Z,77.37
2022-10-31T22:51:16.329Z,76.81
2022-10-31T22:54:03.711Z,77.42
2022-10-31T22:56:53.354Z,77.05
2022-10-31T22:59:40.047Z,76.50
2022-10-31T23:02:26.828Z,77.28
2022-10-31T23:05:13.675Z,76.92
2022-10-31T23:08:00.772Z,76.40
2022-10-31T23:10:48.040Z,76.10
2022-10-31T23:13:37.267Z,76.63
2022-10-31T23:16:28.890Z,76.36
2022-10-31T23:19:15.605Z,76.71
2022-10-31T23:22:04.155Z,76.31
2022-10-31T23:25:06.950Z,76.97
2022-10-31T23:27:54.007Z,76.76
2022-10-31T23:30:40.699Z,76.23
2022-10-31T23:33:31.344Z,76.89
2022-10-31T23:36:18.315Z,77.32
2022-10-31T23:39:04.996Z,77.31
2022-10-31T23:41:51.702Z,76.92
2022-10-31T23:44:38.487Z,76.26
2022-10-31T23:47:25.603Z,76.88
2022-10-31T23:50:12.324Z,76.50
2022-10-31T23:52:59.089Z,76.26
2022-10-31T23:55:45.817Z,76.90
2022-10-31T23:58:32.561Z,77.06
